Time;durP1;ratioP1;P1;durP2;ratioP2;P2;SDS_P1;SDS_P2;PMS_P1;PMS_P2;Temp;Humidity;BMP_temperature;BMP_pressure;BME280_temperature;BME280_humidity;BME280_pressure;Samples;Min_cycle;Max_cycle;Signal;HPM_P1;HPM_P2
2023/01/06 00:00:40;;;;;;;;;;;8.70;99.90;;;;;;5071995;28;19920;-71
2023/01/06 00:03:07;;;;;;;;;;;8.70;99.90;;;;;;5072766;28;19919;-71
2023/01/06 00:05:32;;;;;;;;;;;8.70;99.90;;;;;;5073524;28;19913;-70
2023/01/06 00:07:58;;;;;;;;;;;8.90;99.90;;;;;;5071871;28;19943;-73
2023/01/06 00:10:24;;;;;;;;;;;8.90;99.90;;;;;;5076053;28;20018;-71
2023/01/06 00:12:51;;;;;;;;;;;8.90;99.90;;;;;;5076869;28;19912;-73
2023/01/06 00:15:17;;;;;;;;;;;8.90;99.90;;;;;;5076920;28;19959;-74
2023/01/06 00:17:43;;;;;;;;;;;9.00;99.90;;;;;;5076339;28;19935;-73
2023/01/06 00:20:09;;;;;;;;;;;9.00;99.90;;;;;;5076617;28;19917;-73
2023/01/06 00:22:35;;;;;;;;;;;9.00;99.90;;;;;;5077475;28;19995;-71
2023/01/06 00:25:01;;;;;;;;;;;9.00;99.90;;;;;;5077068;28;19967;-73
2023/01/06 00:27:26;;;;;;;;;;;9.10;99.90;;;;;;5076717;28;19912;-71
2023/01/06 00:29:52;;;;;;;;;;;9.10;99.90;;;;;;5076638;28;19913;-72
2023/01/06 00:32:17;;;;;;;;;;;9.00;99.90;;;;;;5076853;28;19912;-71
2023/01/06 00:34:43;;;;;;;;;;;9.10;99.90;;;;;;5076685;28;19912;-73
2023/01/06 00:37:09;;;;;;;;;;;9.10;99.90;;;;;;5076610;28;19966;-73
2023/01/06 00:39:34;;;;;;;;;;;9.10;99.90;;;;;;5076846;28;19912;-73
2023/01/06 00:42:03;;;;;;;;;;;9.00;99.90;;;;;;5076726;28;19927;-73
2023/01/06 00:44:29;;;;;;;;;;;9.00;99.90;;;;;;5070961;28;20389;-72
2023/01/06 00:46:55;;;;;;;;;;;9.00;99.90;;;;;;5076464;28;19918;-71
2023/01/06 00:49:20;;;;;;;;;;;9.00;99.90;;;;;;5076184;28;20007;-73
2023/01/06 00:51:46;;;;;;;;;;;9.00;99.90;;;;;;5076334;28;19916;-71
2023/01/06 00:54:12;;;;;;;;;;;9.00;99.90;;;;;;5065134;28;19913;-72
2023/01/06 00:56:38;;;;;;;;;;;9.00;99.90;;;;;;5075922;28;20011;-72
2023/01/06 00:59:05;;;;;;;;;;;9.00;99.90;;;;;;5076351;28;19947;-72
2023/01/06 01:01:30;;;;;;;;;;;9.00;99.90;;;;;;5058406;28;19921;-73
2023/01/06 01:03:56;;;;;;;;;;;9.00;99.90;;;;;;5075530;28;19912;-72
2023/01/06 01:06:21;;;;;;;;;;;9.00;99.90;;;;;;5075537;28;20021;-72
2023/01/06 01:08:51;;;;;;;;;;;9.00;99.90;;;;;;5073263;28;19955;-71
2023/01/06 01:14:01;;;;;;;;;;;9.10;99.90;;;;;;5075563;28;19927;-73
2023/01/06 01:16:26;;;;;;;;;;;9.10;99.90;;;;;;5076154;28;19916;-71
2023/01/06 01:18:52;;;;;;;;;;;9.10;99.90;;;;;;5075856;28;19913;-72
2023/01/06 01:21:17;;;;;;;;;;;9.10;99.90;;;;;;5075668;28;19927;-70
2023/01/06 01:23:43;;;;;;;;;;;9.10;99.90;;;;;;5075869;28;19920;-71
2023/01/06 01:26:08;;;;;;;;;;;9.10;99.90;;;;;;5076064;28;20012;-72
2023/01/06 01:28:34;;;;;;;;;;;9.10;99.90;;;;;;5075582;28;19985;-71
2023/01/06 01:31:00;;;;;;;;;;;9.10;99.90;;;;;;5062436;28;20007;-72
2023/01/06 01:33:27;;;;;;;;;;;9.10;99.90;;;;;;5075880;28;19917;-71
2023/01/06 01:35:53;;;;;;;;;;;9.20;99.90;;;;;;5075999;28;19912;-72
2023/01/06 01:38:19;;;;;;;;;;;9.10;99.90;;;;;;5075858;28;20027;-72
2023/01/06 01:40:48;;;;;;;;;;;9.10;99.90;;;;;;5075832;28;19920;-72
2023/01/06 01:43:14;;;;;;;;;;;9.10;99.90;;;;;;5075725;28;19999;-71
2023/01/06 01:45:40;;;;;;;;;;;9.10;99.90;;;;;;5075500;28;19974;-73
2023/01/06 01:48:12;;;;;;;;;;;9.10;99.90;;;;;;5075825;28;19913;-73
2023/01/06 01:50:49;;;;;;;;;;;9.20;99.90;;;;;;5075671;28;19965;-72
2023/01/06 01:53:21;;;;;;;;;;;9.20;99.90;;;;;;5075365;28;19955;-70
2023/01/06 01:55:47;;;;;;;;;;;9.20;99.90;;;;;;5075469;28;19912;-71
2023/01/06 01:58:24;;;;;;;;;;;9.20;99.90;;;;;;5075524;28;20364;-71
2023/01/06 02:00:50;;;;;;;;;;;9.20;99.90;;;;;;5075044;28;20256;-73
2023/01/06 02:03:16;;;;;;;;;;;9.10;99.90;;;;;;5075050;28;19938;-71
2023/01/06 02:05:44;;;;;;;;;;;9.20;99.90;;;;;;5057313;28;19919;-73
2023/01/06 02:08:27;;;;;;;;;;;9.10;99.90;;;;;;5075103;28;20245;-72
2023/01/06 02:10:52;;;;;;;;;;;9.10;99.90;;;;;;5074729;28;19912;-73
2023/01/06 02:13:18;;;;;;;;;;;9.00;99.90;;;;;;5074845;28;20359;-71
2023/01/06 02:15:44;;;;;;;;;;;9.10;99.90;;;;;;5074667;28;19963;-73
2023/01/06 02:18:12;;;;;;;;;;;9.10;99.90;;;;;;5074502;28;19912;-71
2023/01/06 02:20:47;;;;;;;;;;;9.10;99.90;;;;;;5057710;28;19920;-71
2023/01/06 02:23:34;;;;;;;;;;;9.10;99.90;;;;;;5072923;28;19943;-73
2023/01/06 02:26:18;;;;;;;;;;;9.00;99.90;;;;;;5068887;28;19924;-73
2023/01/06 02:28:59;;;;;;;;;;;8.90;99.90;;;;;;5061154;28;19912;-74
2023/01/06 02:31:34;;;;;;;;;;;9.00;99.90;;;;;;5070900;28;19921;-71
2023/01/06 02:34:15;;;;;;;;;;;9.00;99.90;;;;;;5074285;28;19944;-73
2023/01/06 02:36:41;;;;;;;;;;;9.00;99.90;;;;;;5073991;28;20284;-70
2023/01/06 02:39:12;;;;;;;;;;;9.00;99.90;;;;;;5072261;28;19912;-70
2023/01/06 02:41:42;;;;;;;;;;;9.00;99.90;;;;;;5073704;28;19920;-71
2023/01/06 02:44:22;;;;;;;;;;;9.10;99.90;;;;;;5073734;28;19990;-71
2023/01/06 02:46:54;;;;;;;;;;;9.10;99.90;;;;;;5054630;28;19991;-73
2023/01/06 02:49:31;;;;;;;;;;;9.00;99.90;;;;;;5036559;28;19917;-71
2023/01/06 02:52:15;;;;;;;;;;;9.00;99.90;;;;;;5056348;28;20562;-71
2023/01/06 02:54:43;;;;;;;;;;;9.00;99.90;;;;;;5074054;28;19919;-70
2023/01/06 02:57:19;;;;;;;;;;;9.00;99.90;;;;;;5073731;28;19973;-71
2023/01/06 02:59:52;;;;;;;;;;;9.00;99.90;;;;;;5073614;28;19955;-70
2023/01/06 03:02:19;;;;;;;;;;;9.00;99.90;;;;;;5073728;28;19917;-71
2023/01/06 03:04:45;;;;;;;;;;;9.00;99.90;;;;;;5073471;28;20061;-71
2023/01/06 03:07:13;;;;;;;;;;;9.00;99.90;;;;;;5074096;28;20034;-71
2023/01/06 03:09:38;;;;;;;;;;;8.90;99.90;;;;;;5056210;28;19919;-70
2023/01/06 03:12:12;;;;;;;;;;;8.90;99.90;;;;;;5073648;28;19925;-71
2023/01/06 03:14:40;;;;;;;;;;;8.90;99.90;;;;;;5074117;28;19916;-73
2023/01/06 03:17:06;;;;;;;;;;;8.80;99.90;;;;;;5055922;28;19966;-71
2023/01/06 03:19:31;;;;;;;;;;;8.80;99.90;;;;;;5055961;28;20314;-71
2023/01/06 03:21:58;;;;;;;;;;;8.80;99.90;;;;;;5073834;28;20261;-72
2023/01/06 03:24:24;;;;;;;;;;;8.80;99.90;;;;;;5073827;28;19920;-71
2023/01/06 03:26:51;;;;;;;;;;;8.80;99.90;;;;;;5073611;28;19930;-71
2023/01/06 03:29:17;;;;;;;;;;;8.80;99.90;;;;;;5073831;28;20011;-72
2023/01/06 03:31:45;;;;;;;;;;;8.60;99.90;;;;;;5074115;28;19952;-73
2023/01/06 03:34:26;;;;;;;;;;;8.70;99.90;;;;;;5073908;28;19916;-73
2023/01/06 03:36:58;;;;;;;;;;;8.70;99.90;;;;;;5074239;28;20006;-73
2023/01/06 03:39:29;;;;;;;;;;;8.70;99.90;;;;;;5074229;28;20432;-70
2023/01/06 03:45:01;;;;;;;;;;;8.70;99.90;;;;;;5077930;28;19919;-70
2023/01/06 03:47:52;;;;;;;;;;;8.80;99.90;;;;;;5078242;28;19920;-71
2023/01/06 03:50:29;;;;;;;;;;;8.80;99.90;;;;;;5029680;28;20007;-73
2023/01/06 03:52:58;;;;;;;;;;;8.70;99.90;;;;;;5077736;28;19920;-71
2023/01/06 03:55:25;;;;;;;;;;;8.60;99.90;;;;;;5077567;28;20348;-73
2023/01/06 03:57:53;;;;;;;;;;;8.60;99.90;;;;;;5056011;28;19913;-70
2023/01/06 04:00:21;;;;;;;;;;;8.70;99.90;;;;;;5071915;28;19923;-70
2023/01/06 04:02:47;;;;;;;;;;;8.60;99.90;;;;;;5077030;28;19966;-71
2023/01/06 04:05:14;;;;;;;;;;;8.70;99.90;;;;;;5077142;28;19912;-73
2023/01/06 04:07:40;;;;;;;;;;;8.70;99.90;;;;;;5077094;28;20437;-70
2023/01/06 04:10:06;;;;;;;;;;;8.80;99.90;;;;;;5076760;28;19995;-72
2023/01/06 04:12:38;;;;;;;;;;;8.80;99.90;;;;;;5077097;28;20260;-71
2023/01/06 04:15:06;;;;;;;;;;;8.70;99.90;;;;;;5077013;28;19923;-71
2023/01/06 04:17:32;;;;;;;;;;;8.70;99.90;;;;;;5077076;28;19912;-73
2023/01/06 04:19:58;;;;;;;;;;;8.70;99.90;;;;;;5076914;28;20279;-71
2023/01/06 04:22:24;;;;;;;;;;;8.70;99.90;;;;;;5077121;28;19917;-70
2023/01/06 04:24:49;;;;;;;;;;;8.80;99.90;;;;;;5061484;28;19966;-71
2023/01/06 04:27:15;;;;;;;;;;;8.70;99.90;;;;;;5076638;28;19913;-71
2023/01/06 04:29:40;;;;;;;;;;;8.60;99.90;;;;;;5060116;28;20347;-73
2023/01/06 04:32:06;;;;;;;;;;;8.60;99.90;;;;;;5076838;28;20007;-73
2023/01/06 04:34:32;;;;;;;;;;;8.60;99.90;;;;;;5076445;28;20559;-72
2023/01/06 04:36:57;;;;;;;;;;;8.70;99.90;;;;;;5074983;28;19916;-73
2023/01/06 04:39:23;;;;;;;;;;;8.70;99.90;;;;;;5075725;28;19927;-73
2023/01/06 04:41:49;;;;;;;;;;;8.70;99.90;;;;;;5075439;28;20288;-71
2023/01/06 04:44:14;;;;;;;;;;;8.60;99.90;;;;;;5070203;28;20004;-72
2023/01/06 04:46:40;;;;;;;;;;;8.60;99.90;;;;;;5076306;28;19952;-70
2023/01/06 04:49:05;;;;;;;;;;;8.60;99.90;;;;;;5076310;28;19912;-71
2023/01/06 04:51:31;;;;;;;;;;;8.60;99.90;;;;;;5076956;28;19919;-71
2023/01/06 04:53:56;;;;;;;;;;;8.50;99.90;;;;;;5076609;28;19920;-71
2023/01/06 04:56:22;;;;;;;;;;;8.40;99.90;;;;;;5058301;28;19962;-73
2023/01/06 04:58:48;;;;;;;;;;;8.40;99.90;;;;;;5066399;28;19920;-70
2023/01/06 05:01:13;;;;;;;;;;;8.30;99.90;;;;;;5076459;28;19927;-70
2023/01/06 05:03:39;;;;;;;;;;;8.30;99.90;;;;;;5075915;28;19916;-70
2023/01/06 05:06:10;;;;;;;;;;;8.30;99.90;;;;;;5076363;28;19912;-71
2023/01/06 05:08:36;;;;;;;;;;;8.30;99.90;;;;;;5075692;28;19913;-73
2023/01/06 05:11:03;;;;;;;;;;;8.30;99.90;;;;;;5075079;28;19913;-73
2023/01/06 05:13:32;;;;;;;;;;;8.40;99.90;;;;;;5058143;28;19917;-73
2023/01/06 05:15:58;;;;;;;;;;;8.40;99.90;;;;;;5075694;28;19921;-70
2023/01/06 05:18:24;;;;;;;;;;;8.40;99.90;;;;;;5075904;28;20405;-71
2023/01/06 05:20:53;;;;;;;;;;;8.40;99.90;;;;;;5075985;28;19925;-73
2023/01/06 05:23:18;;;;;;;;;;;8.40;99.90;;;;;;5075924;28;19957;-72
2023/01/06 05:25:44;;;;;;;;;;;8.40;99.90;;;;;;5058399;28;19913;-71
2023/01/06 05:28:10;;;;;;;;;;;8.40;99.90;;;;;;5075426;28;20378;-70
2023/01/06 05:30:36;;;;;;;;;;;8.40;99.90;;;;;;5075697;28;20370;-71
2023/01/06 05:33:02;;;;;;;;;;;8.40;99.90;;;;;;5075942;28;20256;-70
2023/01/06 05:35:27;;;;;;;;;;;8.40;99.90;;;;;;5058606;28;19913;-71
2023/01/06 05:37:53;;;;;;;;;;;8.40;99.90;;;;;;5075076;28;19940;-70
2023/01/06 05:40:19;;;;;;;;;;;8.40;99.90;;;;;;5075865;28;19930;-72
2023/01/06 05:42:45;;;;;;;;;;;8.40;99.90;;;;;;5075847;28;19913;-71
2023/01/06 05:45:10;;;;;;;;;;;8.50;99.90;;;;;;5075146;28;20003;-74
2023/01/06 05:47:36;;;;;;;;;;;8.50;99.90;;;;;;5075481;28;19912;-70
2023/01/06 05:50:02;;;;;;;;;;;8.50;99.90;;;;;;5057000;28;19913;-73
2023/01/06 05:52:28;;;;;;;;;;;8.50;99.90;;;;;;5075260;28;19912;-75
2023/01/06 05:54:53;;;;;;;;;;;8.50;99.90;;;;;;5074933;28;19913;-71
2023/01/06 05:57:19;;;;;;;;;;;8.50;99.90;;;;;;5075203;28;19922;-74
2023/01/06 05:59:44;;;;;;;;;;;8.60;99.90;;;;;;5075220;28;20417;-71
2023/01/06 06:02:10;;;;;;;;;;;8.60;99.90;;;;;;5074377;28;19928;-70
2023/01/06 06:04:35;;;;;;;;;;;8.60;99.90;;;;;;5060723;28;19920;-71
2023/01/06 06:07:01;;;;;;;;;;;8.70;99.90;;;;;;5074519;28;19957;-71
2023/01/06 06:09:27;;;;;;;;;;;8.60;99.90;;;;;;5056268;28;19927;-71
2023/01/06 06:11:53;;;;;;;;;;;8.60;99.90;;;;;;5057267;28;19920;-70
2023/01/06 06:14:19;;;;;;;;;;;8.60;99.90;;;;;;5075110;28;19920;-71
2023/01/06 06:16:44;;;;;;;;;;;8.60;99.90;;;;;;5056843;28;19920;-71
2023/01/06 06:19:11;;;;;;;;;;;8.70;99.90;;;;;;5075064;28;19958;-70
2023/01/06 06:21:36;;;;;;;;;;;8.70;99.90;;;;;;5074969;28;20322;-70
2023/01/06 06:24:02;;;;;;;;;;;8.70;99.90;;;;;;5057048;28;20011;-71
2023/01/06 06:26:28;;;;;;;;;;;8.70;99.90;;;;;;5057363;28;20077;-75
2023/01/06 06:28:54;;;;;;;;;;;8.70;99.90;;;;;;5074992;28;19912;-72
2023/01/06 06:31:24;;;;;;;;;;;8.70;99.90;;;;;;5057082;28;20015;-71
2023/01/06 06:33:50;;;;;;;;;;;8.70;99.90;;;;;;5074726;28;19916;-72
2023/01/06 06:36:16;;;;;;;;;;;8.80;99.90;;;;;;5056334;28;20008;-71
2023/01/06 06:38:42;;;;;;;;;;;8.70;99.90;;;;;;5074649;28;19979;-72
2023/01/06 06:41:08;;;;;;;;;;;8.60;99.90;;;;;;5074931;28;20440;-76
2023/01/06 06:43:33;;;;;;;;;;;8.60;99.90;;;;;;5074499;28;20002;-72
2023/01/06 06:45:59;;;;;;;;;;;8.60;99.90;;;;;;5074705;28;20360;-75
2023/01/06 06:48:26;;;;;;;;;;;8.60;99.90;;;;;;5056440;28;20003;-71
2023/01/06 06:50:55;;;;;;;;;;;8.60;99.90;;;;;;5074518;28;19912;-71
2023/01/06 06:53:20;;;;;;;;;;;8.70;99.90;;;;;;5056910;28;19912;-75
2023/01/06 06:55:46;;;;;;;;;;;8.70;99.90;;;;;;5074538;28;19912;-74
2023/01/06 06:58:12;;;;;;;;;;;8.60;99.90;;;;;;5074005;28;19916;-71
2023/01/06 07:00:37;;;;;;;;;;;8.60;99.90;;;;;;5056008;28;20288;-75
2023/01/06 07:03:03;;;;;;;;;;;8.60;99.90;;;;;;5056172;28;19919;-72
2023/01/06 07:05:28;;;;;;;;;;;8.60;99.90;;;;;;5074500;28;19950;-75
2023/01/06 07:07:54;;;;;;;;;;;8.60;99.90;;;;;;5072741;28;19995;-72
2023/01/06 07:10:19;;;;;;;;;;;8.70;99.90;;;;;;5073494;28;19913;-74
2023/01/06 07:12:45;;;;;;;;;;;8.60;99.90;;;;;;5074036;28;19912;-71
2023/01/06 07:15:11;;;;;;;;;;;8.60;99.90;;;;;;5073835;28;19924;-71
2023/01/06 07:17:36;;;;;;;;;;;8.70;99.90;;;;;;5073580;28;19913;-74
2023/01/06 07:20:02;;;;;;;;;;;8.70;99.90;;;;;;5056063;28;20272;-73
2023/01/06 07:22:28;;;;;;;;;;;8.60;99.90;;;;;;5074321;28;20245;-75
2023/01/06 07:24:53;;;;;;;;;;;8.60;99.90;;;;;;5074152;28;20007;-74
2023/01/06 07:27:19;;;;;;;;;;;8.60;99.90;;;;;;5072983;28;19917;-75
2023/01/06 07:29:44;;;;;;;;;;;8.60;99.90;;;;;;5074249;28;20351;-71
2023/01/06 07:32:10;;;;;;;;;;;8.60;99.90;;;;;;5055575;28;19936;-75
2023/01/06 07:34:35;;;;;;;;;;;8.60;99.90;;;;;;5073411;28;20030;-71
2023/01/06 07:37:01;;;;;;;;;;;8.60;99.90;;;;;;5073484;28;20297;-75
2023/01/06 07:39:26;;;;;;;;;;;8.50;99.90;;;;;;5055931;28;19967;-74
2023/01/06 07:41:52;;;;;;;;;;;8.50;99.90;;;;;;5074005;28;20019;-71
2023/01/06 07:44:17;;;;;;;;;;;8.50;99.90;;;;;;5074139;28;19912;-75
2023/01/06 07:46:43;;;;;;;;;;;8.60;99.90;;;;;;5074253;28;19913;-71
2023/01/06 07:49:09;;;;;;;;;;;8.60;99.90;;;;;;5074190;28;20260;-75
2023/01/06 07:51:34;;;;;;;;;;;8.60;99.90;;;;;;5074234;28;19920;-71
2023/01/06 07:54:00;;;;;;;;;;;8.60;99.90;;;;;;5055878;28;19912;-74
2023/01/06 07:56:29;;;;;;;;;;;8.50;99.90;;;;;;5055960;28;19912;-74
2023/01/06 07:58:54;;;;;;;;;;;8.50;99.90;;;;;;5073966;28;19913;-75
2023/01/06 08:01:20;;;;;;;;;;;8.50;99.90;;;;;;5073785;28;19928;-75
2023/01/06 08:03:45;;;;;;;;;;;8.50;99.90;;;;;;5070547;28;19913;-75
2023/01/06 08:06:11;;;;;;;;;;;8.50;99.90;;;;;;5053251;28;20318;-74
2023/01/06 08:08:37;;;;;;;;;;;8.50;99.90;;;;;;5052935;28;19913;-74
2023/01/06 08:11:04;;;;;;;;;;;8.50;99.90;;;;;;5053697;28;20003;-72
2023/01/06 08:13:29;;;;;;;;;;;8.50;99.90;;;;;;5046296;28;20385;-74
2023/01/06 08:15:55;;;;;;;;;;;8.50;99.90;;;;;;5073755;28;19956;-75
2023/01/06 08:18:20;;;;;;;;;;;8.50;99.90;;;;;;5055860;28;19919;-72
2023/01/06 08:20:46;;;;;;;;;;;8.50;99.90;;;;;;5073815;28;19920;-76
2023/01/06 08:23:12;;;;;;;;;;;8.50;99.90;;;;;;5055595;28;20011;-72
2023/01/06 08:25:37;;;;;;;;;;;8.50;99.90;;;;;;5073423;28;19916;-75
2023/01/06 08:28:03;;;;;;;;;;;8.50;99.90;;;;;;5073563;28;19920;-73
2023/01/06 08:30:29;;;;;;;;;;;8.60;99.90;;;;;;5075036;28;19948;-75
2023/01/06 08:32:58;;;;;;;;;;;8.60;99.90;;;;;;5077075;28;19919;-77
2023/01/06 08:35:24;;;;;;;;;;;8.70;99.90;;;;;;5059094;28;19999;-76
2023/01/06 08:37:49;;;;;;;;;;;8.70;99.90;;;;;;5077277;28;19952;-74
2023/01/06 08:40:15;;;;;;;;;;;8.70;99.90;;;;;;5075507;28;19944;-72
2023/01/06 08:42:40;;;;;;;;;;;8.80;99.90;;;;;;5075366;28;19986;-75
2023/01/06 08:45:06;;;;;;;;;;;8.80;99.90;;;;;;5059198;28;19917;-78
2023/01/06 08:47:32;;;;;;;;;;;8.90;99.90;;;;;;5077216;28;19958;-71
2023/01/06 08:49:58;;;;;;;;;;;8.90;99.90;;;;;;5076635;28;20364;-76
2023/01/06 08:52:24;;;;;;;;;;;;;;;;;;5076914;28;19962;-76
2023/01/06 08:54:50;;;;;;;;;;;8.90;99.90;;;;;;5058805;28;19917;-72
2023/01/06 08:57:16;;;;;;;;;;;8.90;99.90;;;;;;5076777;28;20360;-73
2023/01/06 08:59:41;;;;;;;;;;;8.90;99.90;;;;;;5076939;28;19938;-71
2023/01/06 09:02:08;;;;;;;;;;;8.80;99.90;;;;;;5076743;28;20360;-72
2023/01/06 09:04:34;;;;;;;;;;;8.90;99.90;;;;;;5076625;28;19999;-73
2023/01/06 09:06:59;;;;;;;;;;;9.00;99.90;;;;;;5076751;28;20354;-74
2023/01/06 09:09:25;;;;;;;;;;;9.00;99.90;;;;;;5076068;28;19916;-72
2023/01/06 09:11:50;;;;;;;;;;;9.00;99.90;;;;;;5058630;28;20275;-79
2023/01/06 09:14:16;;;;;;;;;;;9.00;99.90;;;;;;5072941;28;19952;-73
2023/01/06 09:16:42;;;;;;;;;;;9.10;99.90;;;;;;5074549;28;20011;-71
2023/01/06 09:19:09;;;;;;;;;;;9.00;99.90;;;;;;5066618;28;19912;-76
2023/01/06 09:21:35;;;;;;;;;;;9.00;99.90;;;;;;5062735;28;19924;-73
2023/01/06 09:24:00;;;;;;;;;;;9.10;99.90;;;;;;5060297;28;19966;-78
2023/01/06 09:26:26;;;;;;;;;;;9.10;99.90;;;;;;5072342;28;19924;-74
2023/01/06 09:28:51;;;;;;;;;;;9.20;99.90;;;;;;5050330;28;20007;-75
2023/01/06 09:31:17;;;;;;;;;;;9.20;99.90;;;;;;5054472;28;19912;-76
2023/01/06 09:33:43;;;;;;;;;;;9.20;99.90;;;;;;5064656;28;19912;-71
2023/01/06 09:36:09;;;;;;;;;;;;;;;;;;5073668;28;20449;-75
2023/01/06 09:38:34;;;;;;;;;;;9.20;99.90;;;;;;5056011;28;19920;-75
2023/01/06 09:41:12;;;;;;;;;;;9.20;99.90;;;;;;5073222;28;19927;-75
2023/01/06 09:43:51;;;;;;;;;;;9.20;99.90;;;;;;5073490;28;19958;-74
2023/01/06 09:46:29;;;;;;;;;;;9.20;99.90;;;;;;5073785;28;19920;-73
2023/01/06 09:49:00;;;;;;;;;;;9.30;99.90;;;;;;5073428;28;19913;-70
2023/01/06 09:51:26;;;;;;;;;;;9.30;99.90;;;;;;5073781;28;19958;-70
2023/01/06 09:53:57;;;;;;;;;;;9.30;99.90;;;;;;5073486;28;19916;-74
2023/01/06 09:56:23;;;;;;;;;;;9.30;99.90;;;;;;5073786;28;19919;-73
2023/01/06 09:59:11;;;;;;;;;;;9.30;99.90;;;;;;5073344;28;19921;-70
2023/01/06 10:01:39;;;;;;;;;;;9.30;99.90;;;;;;5073401;28;19924;-72
2023/01/06 10:04:04;;;;;;;;;;;9.30;99.90;;;;;;5055284;28;19913;-72
2023/01/06 10:07:02;;;;;;;;;;;9.40;99.90;;;;;;5074295;28;19919;-72
2023/01/06 10:09:51;;;;;;;;;;;9.30;99.90;;;;;;5024028;28;19912;-72
2023/01/06 10:12:35;;;;;;;;;;;9.40;99.90;;;;;;5073567;28;19919;-72
2023/01/06 10:15:04;;;;;;;;;;;9.30;99.90;;;;;;5035060;28;19963;-73
2023/01/06 10:17:46;;;;;;;;;;;9.40;99.90;;;;;;5052571;28;19920;-71
2023/01/06 10:20:29;;;;;;;;;;;9.50;99.90;;;;;;5035108;28;19934;-70
2023/01/06 10:23:10;;;;;;;;;;;9.30;99.90;;;;;;5039095;28;20014;-70
2023/01/06 10:25:48;;;;;;;;;;;9.30;99.90;;;;;;5073202;28;19957;-73
2023/01/06 10:28:23;;;;;;;;;;;9.40;99.90;;;;;;5073002;28;20001;-70
2023/01/06 10:30:50;;;;;;;;;;;9.40;99.90;;;;;;5073190;28;20253;-70
2023/01/06 10:33:19;;;;;;;;;;;9.40;99.90;;;;;;5073184;28;20380;-73
2023/01/06 10:35:44;;;;;;;;;;;9.50;99.90;;;;;;5055724;28;20021;-69
2023/01/06 10:38:11;;;;;;;;;;;9.50;99.90;;;;;;5074819;28;19955;-70
2023/01/06 10:40:37;;;;;;;;;;;9.50;99.90;;;;;;5056911;28;20018;-73
2023/01/06 10:43:05;;;;;;;;;;;9.40;99.90;;;;;;5072868;28;19995;-69
2023/01/06 10:45:41;;;;;;;;;;;9.40;99.90;;;;;;5085432;28;19912;-69
2023/01/06 10:48:10;;;;;;;;;;;9.50;99.90;;;;;;5074609;28;19912;-73
2023/01/06 10:50:36;;;;;;;;;;;9.60;99.90;;;;;;5093259;28;19912;-69
2023/01/06 10:53:02;;;;;;;;;;;9.60;99.90;;;;;;5087960;28;19943;-69
2023/01/06 10:55:32;;;;;;;;;;;9.60;99.90;;;;;;5072941;28;19985;-73
2023/01/06 10:58:06;;;;;;;;;;;9.60;99.90;;;;;;5072480;28;20402;-72
2023/01/06 11:00:32;;;;;;;;;;;9.50;99.90;;;;;;5071962;28;19927;-70
2023/01/06 11:03:02;;;;;;;;;;;9.50;99.90;;;;;;5054095;28;20422;-72
2023/01/06 11:05:29;;;;;;;;;;;9.50;99.90;;;;;;5072253;28;20331;-71
2023/01/06 11:07:57;;;;;;;;;;;9.60;99.90;;;;;;5072298;28;19951;-72
2023/01/06 11:10:25;;;;;;;;;;;9.60;99.90;;;;;;5073788;28;19919;-71
2023/01/06 11:12:51;;;;;;;;;;;;;;;;;;5073543;28;19920;-70
2023/01/06 11:15:20;;;;;;;;;;;9.60;99.90;;;;;;5072733;28;19921;-71
2023/01/06 11:17:46;;;;;;;;;;;9.60;99.90;;;;;;5072169;28;20276;-69
2023/01/06 11:20:12;;;;;;;;;;;9.60;99.90;;;;;;5072225;28;19912;-70
2023/01/06 11:22:39;;;;;;;;;;;9.60;99.90;;;;;;5054344;28;19920;-72
2023/01/06 11:25:19;;;;;;;;;;;9.60;99.90;;;;;;5072231;28;19923;-69
2023/01/06 11:27:46;;;;;;;;;;;9.60;99.90;;;;;;5072747;28;20352;-69
2023/01/06 11:30:24;;;;;;;;;;;9.60;99.90;;;;;;5072970;28;19912;-69
2023/01/06 11:32:50;;;;;;;;;;;9.60;99.90;;;;;;5072633;28;19916;-70
2023/01/06 11:35:18;;;;;;;;;;;9.60;99.90;;;;;;5070698;28;19966;-74
2023/01/06 11:37:44;;;;;;;;;;;9.70;99.90;;;;;;5072313;28;19948;-72
2023/01/06 11:40:25;;;;;;;;;;;9.90;99.90;;;;;;5071706;28;20331;-68
2023/01/06 11:42:51;;;;;;;;;;;9.90;99.90;;;;;;5071610;28;19923;-69
2023/01/06 11:45:30;;;;;;;;;;;10.00;99.90;;;;;;5072373;28;20356;-73
2023/01/06 11:47:56;;;;;;;;;;;10.00;99.90;;;;;;5071697;28;19913;-69
2023/01/06 11:50:21;;;;;;;;;;;10.10;99.90;;;;;;5070944;28;19958;-68
2023/01/06 11:53:03;;;;;;;;;;;10.20;99.90;;;;;;5072276;28;19912;-69
2023/01/06 11:55:29;;;;;;;;;;;10.20;99.90;;;;;;5058143;28;20446;-70
2023/01/06 11:57:56;;;;;;;;;;;10.10;99.90;;;;;;5071640;28;19912;-72
2023/01/06 12:00:21;;;;;;;;;;;10.10;99.90;;;;;;5070956;28;20344;-70
2023/01/06 12:02:50;;;;;;;;;;;10.00;99.90;;;;;;5071604;28;20287;-69
2023/01/06 12:05:42;;;;;;;;;;;9.80;99.90;;;;;;5072683;28;20026;-74
2023/01/06 12:08:14;;;;;;;;;;;9.80;99.90;;;;;;5029874;28;20008;-68
2023/01/06 12:10:41;;;;;;;;;;;10.00;99.90;;;;;;5058611;28;20363;-69
2023/01/06 12:13:08;;;;;;;;;;;10.10;99.90;;;;;;5077079;28;19959;-69
2023/01/06 12:15:34;;;;;;;;;;;9.80;99.90;;;;;;5076118;28;19928;-68
2023/01/06 12:18:03;;;;;;;;;;;9.70;99.90;;;;;;5075997;28;20000;-68
2023/01/06 12:20:32;;;;;;;;;;;9.90;99.90;;;;;;5086309;28;19916;-73
2023/01/06 12:23:05;;;;;;;;;;;9.80;99.90;;;;;;5083897;28;20379;-73
2023/01/06 12:25:33;;;;;;;;;;;9.70;99.90;;;;;;5081261;28;19918;-68
2023/01/06 12:28:01;;;;;;;;;;;9.70;99.90;;;;;;5058860;28;20393;-76
2023/01/06 12:30:46;;;;;;;;;;;9.70;99.90;;;;;;5084614;28;19962;-72
2023/01/06 12:33:16;;;;;;;;;;;9.70;99.90;;;;;;5090947;28;19957;-72
2023/01/06 12:35:42;;;;;;;;;;;9.70;99.90;;;;;;5074186;28;19912;-76
2023/01/06 12:38:31;;;;;;;;;;;9.70;99.90;;;;;;5074469;28;19942;-74
2023/01/06 12:41:08;;;;;;;;;;;9.70;99.90;;;;;;5072438;28;20410;-74
2023/01/06 12:43:36;;;;;;;;;;;9.70;99.90;;;;;;5056449;28;19913;-74
2023/01/06 12:46:16;;;;;;;;;;;9.70;99.90;;;;;;5074346;28;19913;-71
2023/01/06 12:49:01;;;;;;;;;;;9.80;99.90;;;;;;5057179;28;19913;-75
2023/01/06 12:51:35;;;;;;;;;;;10.00;99.90;;;;;;5075149;28;20351;-72
2023/01/06 12:54:16;;;;;;;;;;;10.00;99.90;;;;;;5072413;28;19951;-73
2023/01/06 12:56:41;;;;;;;;;;;10.10;99.90;;;;;;5073392;28;19999;-73
2023/01/06 12:59:07;;;;;;;;;;;10.30;99.90;;;;;;5074406;28;20028;-73
2023/01/06 13:01:36;;;;;;;;;;;10.30;99.90;;;;;;5074629;28;19927;-70
2023/01/06 13:04:02;;;;;;;;;;;10.30;99.90;;;;;;5059579;28;19913;-71
2023/01/06 13:06:33;;;;;;;;;;;10.20;99.90;;;;;;5071987;28;19919;-73
2023/01/06 13:08:59;;;;;;;;;;;10.10;99.90;;;;;;5078737;28;20114;-72
2023/01/06 13:11:35;;;;;;;;;;;10.00;99.90;;;;;;5059117;28;20006;-73
2023/01/06 13:14:05;;;;;;;;;;;10.10;99.90;;;;;;5072542;28;19920;-75
2023/01/06 13:16:31;;;;;;;;;;;10.20;99.90;;;;;;5064271;28;19912;-72
2023/01/06 13:19:14;;;;;;;;;;;10.20;99.90;;;;;;5055942;28;19912;-74
2023/01/06 13:21:41;;;;;;;;;;;10.20;99.90;;;;;;5067763;28;19925;-74
2023/01/06 13:24:09;;;;;;;;;;;10.20;99.90;;;;;;5078528;28;19912;-71
2023/01/06 13:26:35;;;;;;;;;;;10.20;99.90;;;;;;5073739;28;19912;-68
2023/01/06 13:29:13;;;;;;;;;;;10.10;99.90;;;;;;5056065;28;19912;-68
2023/01/06 13:31:41;;;;;;;;;;;10.00;99.90;;;;;;5074073;28;20295;-74
2023/01/06 13:34:25;;;;;;;;;;;10.00;99.90;;;;;;5055887;28;20295;-74
2023/01/06 13:36:57;;;;;;;;;;;10.00;99.90;;;;;;5074983;28;20015;-73
2023/01/06 13:39:25;;;;;;;;;;;9.90;99.90;;;;;;5075492;28;20279;-69
2023/01/06 13:41:53;;;;;;;;;;;9.90;99.90;;;;;;5075722;28;19928;-69
2023/01/06 13:44:24;;;;;;;;;;;9.90;99.90;;;;;;5075825;28;19913;-70
2023/01/06 13:46:50;;;;;;;;;;;9.90;99.90;;;;;;5074512;28;19923;-69
2023/01/06 13:49:16;;;;;;;;;;;9.90;99.90;;;;;;5075022;28;20279;-69
2023/01/06 13:51:43;;;;;;;;;;;9.90;99.90;;;;;;5075873;28;19912;-70
2023/01/06 13:54:27;;;;;;;;;;;9.90;99.90;;;;;;5058117;28;19913;-68
2023/01/06 13:57:12;;;;;;;;;;;9.90;99.90;;;;;;5075738;28;19913;-68
2023/01/06 13:59:49;;;;;;;;;;;9.90;99.90;;;;;;5075250;28;20016;-69
2023/01/06 14:02:32;;;;;;;;;;;9.90;99.90;;;;;;5057431;28;19924;-68
2023/01/06 14:05:01;;;;;;;;;;;9.90;99.90;;;;;;5075467;28;20272;-69
2023/01/06 14:07:31;;;;;;;;;;;9.90;99.90;;;;;;5075383;28;20018;-73
2023/01/06 14:09:57;;;;;;;;;;;9.90;99.90;;;;;;5075634;28;19912;-68
2023/01/06 14:12:23;;;;;;;;;;;9.90;99.90;;;;;;5057805;28;19920;-70
2023/01/06 14:14:55;;;;;;;;;;;9.90;99.90;;;;;;5075229;28;19916;-73
2023/01/06 14:17:36;;;;;;;;;;;9.80;99.90;;;;;;5075260;28;19912;-69
2023/01/06 14:20:02;;;;;;;;;;;9.80;99.90;;;;;;5074990;28;19913;-74
2023/01/06 14:22:28;;;;;;;;;;;9.80;99.90;;;;;;5074915;28;19950;-68
2023/01/06 14:25:00;;;;;;;;;;;9.80;99.90;;;;;;5074044;28;21341;-69
2023/01/06 14:27:44;;;;;;;;;;;9.80;99.90;;;;;;5071845;28;19912;-71
2023/01/06 14:30:21;;;;;;;;;;;10.00;99.90;;;;;;5072786;28;20379;-76
2023/01/06 14:32:47;;;;;;;;;;;10.10;99.90;;;;;;5073189;28;20360;-72
2023/01/06 14:35:14;;;;;;;;;;;10.10;99.90;;;;;;5072509;28;19919;-74
2023/01/06 14:37:46;;;;;;;;;;;10.10;99.90;;;;;;5072836;28;19916;-71
2023/01/06 14:40:21;;;;;;;;;;;10.20;99.90;;;;;;5072325;28;19912;-73
2023/01/06 14:42:46;;;;;;;;;;;10.10;99.90;;;;;;5055007;28;20287;-69